createdAt,value
2018-08-31T00:03:00.401Z,14.70
2018-08-31T00:07:57.200Z,14.60
2018-08-31T00:12:54.292Z,14.29
2018-08-31T00:17:49.588Z,14.20
2018-08-31T00:22:46.911Z,14.15
2018-08-31T00:27:42.311Z,14.14
2018-08-31T00:32:38.210Z,14.30
2018-08-31T00:37:34.038Z,14.36
2018-08-31T00:42:29.883Z,14.20
2018-08-31T00:47:26.969Z,14.25
2018-08-31T00:52:22.170Z,14.30
2018-08-31T00:57:18.928Z,14.25
2018-08-31T01:02:14.258Z,14.07
2018-08-31T01:07:11.118Z,13.89
2018-08-31T01:12:07.708Z,13.68
2018-08-31T01:17:03.082Z,13.63
2018-08-31T01:21:58.606Z,13.52
2018-08-31T01:26:55.303Z,13.49
2018-08-31T01:31:51.524Z,13.54
2018-08-31T01:36:47.327Z,13.60
2018-08-31T01:41:43.752Z,13.68
2018-08-31T01:46:40.255Z,13.63
2018-08-31T01:51:35.914Z,13.81
2018-08-31T01:56:31.614Z,13.75
2018-08-31T02:01:27.380Z,13.78
2018-08-31T02:06:23.136Z,13.71
2018-08-31T02:11:18.738Z,13.46
2018-08-31T02:16:14.838Z,13.28
2018-08-31T02:21:10.930Z,13.35
2018-08-31T02:26:06.703Z,13.30
2018-08-31T02:31:02.590Z,13.19
2018-08-31T02:36:00.431Z,13.22
2018-08-31T02:40:55.956Z,13.08
2018-08-31T02:45:52.296Z,13.05
2018-08-31T02:50:48.225Z,13.19
2018-08-31T02:55:45.206Z,13.19
2018-08-31T03:00:41.032Z,13.03
2018-08-31T03:05:36.463Z,13.03
2018-08-31T03:10:33.198Z,13.01
2018-08-31T03:15:29.170Z,12.94
2018-08-31T03:20:25.863Z,12.80
2018-08-31T03:25:20.890Z,12.80
2018-08-31T03:30:16.921Z,12.94
2018-08-31T03:35:13.474Z,13.00
2018-08-31T03:40:09.291Z,12.87
2018-08-31T03:45:04.649Z,12.91
2018-08-31T03:50:00.434Z,12.79
2018-08-31T03:54:57.428Z,12.91
2018-08-31T03:59:52.809Z,12.80
2018-08-31T04:04:48.543Z,13.18
2018-08-31T04:09:44.398Z,13.08
2018-08-31T04:14:40.277Z,13.20
2018-08-31T04:19:36.337Z,13.15
2018-08-31T04:24:33.165Z,13.22
2018-08-31T04:29:28.538Z,13.18
2018-08-31T04:34:24.509Z,13.23
2018-08-31T04:39:21.397Z,13.12
2018-08-31T04:44:17.872Z,13.15
2018-08-31T04:49:13.699Z,13.30
2018-08-31T04:54:08.966Z,13.28
2018-08-31T04:59:05.402Z,13.39
2018-08-31T05:04:01.255Z,13.37
2018-08-31T05:08:58.083Z,13.23
2018-08-31T05:13:53.773Z,13.18
2018-08-31T05:18:49.631Z,13.18
2018-08-31T05:23:46.288Z,13.13
2018-08-31T05:28:43.329Z,13.20
2018-08-31T05:33:40.110Z,13.09
2018-08-31T05:38:37.295Z,13.31
2018-08-31T05:43:32.894Z,13.18
2018-08-31T05:48:28.821Z,13.23
2018-08-31T05:53:25.674Z,13.57
2018-08-31T05:58:22.787Z,13.49
2018-08-31T06:03:18.290Z,13.71
2018-08-31T06:08:14.755Z,13.74
2018-08-31T06:13:11.878Z,13.87
2018-08-31T06:18:07.525Z,14.08
2018-08-31T06:23:03.789Z,14.17
2018-08-31T06:28:00.091Z,14.18
2018-08-31T06:32:56.168Z,14.29
2018-08-31T06:37:52.940Z,14.45
2018-08-31T06:42:48.889Z,14.59
2018-08-31T06:47:44.782Z,14.73
2018-08-31T06:52:41.958Z,14.82
2018-08-31T06:57:37.789Z,14.96
2018-08-31T07:02:33.830Z,15.17
2018-08-31T07:07:30.752Z,15.33
2018-08-31T07:12:27.051Z,15.55
2018-08-31T07:17:23.081Z,15.73
2018-08-31T07:22:18.969Z,15.84
2018-08-31T07:27:14.877Z,15.94
2018-08-31T07:32:11.200Z,15.94
2018-08-31T07:37:07.253Z,16.09
2018-08-31T07:42:04.075Z,16.13
2018-08-31T07:46:59.964Z,16.32
2018-08-31T07:51:56.142Z,16.57
2018-08-31T07:56:52.093Z,16.61
2018-08-31T08:01:48.187Z,16.89
2018-08-31T08:06:44.527Z,17.20
2018-08-31T08:11:40.956Z,17.57
2018-08-31T08:16:38.285Z,17.71
2018-08-31T08:21:34.306Z,17.63
2018-08-31T08:26:30.142Z,17.82
2018-08-31T08:31:27.259Z,17.39
2018-08-31T08:36:22.766Z,17.34
2018-08-31T08:41:18.345Z,17.45
2018-08-31T08:46:14.224Z,17.45
2018-08-31T08:51:10.267Z,17.64
2018-08-31T08:56:05.998Z,17.57
2018-08-31T09:01:01.715Z,17.60
2018-08-31T09:05:57.440Z,17.36
2018-08-31T09:10:54.324Z,17.59
2018-08-31T09:15:49.975Z,17.74
2018-08-31T09:20:46.265Z,17.44
2018-08-31T09:25:42.095Z,17.52
2018-08-31T09:35:38.892Z,17.74
2018-08-31T09:40:34.836Z,17.95
2018-08-31T09:45:30.989Z,18.29
2018-08-31T09:50:27.367Z,18.22
2018-08-31T09:55:23.232Z,18.35
2018-08-31T10:00:20.085Z,18.26
2018-08-31T10:05:17.048Z,18.50
2018-08-31T10:10:12.387Z,18.47
2018-08-31T10:15:08.471Z,18.47
2018-08-31T10:20:04.598Z,18.75
2018-08-31T10:25:02.423Z,18.86
2018-08-31T10:29:58.337Z,18.68
2018-08-31T10:34:55.174Z,18.71
2018-08-31T10:39:51.278Z,19.26
2018-08-31T10:44:47.442Z,19.36
2018-08-31T10:49:44.321Z,18.98
2018-08-31T10:54:40.804Z,18.89
2018-08-31T10:59:36.249Z,19.11
2018-08-31T11:04:32.264Z,19.14
2018-08-31T11:09:28.666Z,19.40
2018-08-31T11:14:25.315Z,19.59
2018-08-31T11:19:21.034Z,19.58
2018-08-31T11:24:16.891Z,19.55
2018-08-31T11:29:12.316Z,19.24
2018-08-31T11:34:07.810Z,19.34
2018-08-31T11:39:04.459Z,19.64
2018-08-31T11:44:03.160Z,20.28
2018-08-31T11:48:59.192Z,20.62
2018-08-31T11:53:54.963Z,20.52
2018-08-31T11:58:50.953Z,20.19
2018-08-31T12:03:46.310Z,19.77
2018-08-31T12:08:43.131Z,19.86
2018-08-31T12:13:38.954Z,20.10
2018-08-31T12:18:35.097Z,20.02
2018-08-31T12:23:31.000Z,20.02
2018-08-31T12:28:26.846Z,20.25
2018-08-31T12:33:22.989Z,20.32
2018-08-31T12:38:18.953Z,20.51
2018-08-31T12:43:14.470Z,20.24
2018-08-31T12:48:09.992Z,20.24
2018-08-31T12:53:07.164Z,20.03
2018-08-31T12:58:02.642Z,19.47
2018-08-31T13:02:58.176Z,19.41
2018-08-31T13:07:53.935Z,19.39
2018-08-31T13:12:50.958Z,19.54
2018-08-31T13:17:47.495Z,19.41
2018-08-31T13:22:42.972Z,19.15
2018-08-31T13:27:39.641Z,19.29
2018-08-31T13:32:35.254Z,19.31
2018-08-31T13:37:32.000Z,19.48
2018-08-31T13:42:27.469Z,19.55
2018-08-31T13:47:23.609Z,19.52
2018-08-31T13:52:19.343Z,19.19
2018-08-31T13:57:15.121Z,19.16
2018-08-31T14:02:11.530Z,19.19
2018-08-31T14:07:07.046Z,19.14
2018-08-31T14:12:03.107Z,19.22
2018-08-31T14:16:58.896Z,19.15
2018-08-31T14:21:54.966Z,19.30
2018-08-31T14:26:51.820Z,19.51
2018-08-31T14:31:47.457Z,19.67
2018-08-31T14:36:43.573Z,19.70
2018-08-31T14:41:39.792Z,19.85
2018-08-31T14:46:35.829Z,20.14
2018-08-31T14:51:32.031Z,20.07
2018-08-31T14:56:27.867Z,19.76
2018-08-31T15:01:23.703Z,19.81
2018-08-31T15:06:19.489Z,19.94
2018-08-31T15:11:16.310Z,19.94
2018-08-31T15:16:11.949Z,20.00
2018-08-31T15:21:08.121Z,20.09
2018-08-31T15:26:04.454Z,20.09
2018-08-31T15:31:00.169Z,20.00
2018-08-31T15:35:56.175Z,19.89
2018-08-31T15:40:52.069Z,19.74
2018-08-31T15:45:47.807Z,19.79
2018-08-31T15:50:43.398Z,19.77
2018-08-31T15:55:39.311Z,19.73
2018-08-31T16:00:35.224Z,19.74
2018-08-31T16:05:31.048Z,19.82
2018-08-31T16:10:26.641Z,19.74
2018-08-31T16:15:22.650Z,19.64
2018-08-31T16:20:18.730Z,19.45
2018-08-31T16:25:14.490Z,19.04
2018-08-31T16:30:10.040Z,18.70
2018-08-31T16:35:05.513Z,18.43
2018-08-31T16:40:02.151Z,18.31
2018-08-31T16:44:57.631Z,18.08
2018-08-31T16:49:54.950Z,18.13
2018-08-31T16:54:50.854Z,18.15
2018-08-31T16:59:47.644Z,18.01
2018-08-31T17:04:44.186Z,17.87
2018-08-31T17:09:39.660Z,18.01
2018-08-31T17:14:35.547Z,17.87
2018-08-31T17:19:31.305Z,17.86
2018-08-31T17:24:27.257Z,17.89
2018-08-31T17:29:24.079Z,17.76
2018-08-31T17:34:19.880Z,17.78
2018-08-31T17:39:15.755Z,17.68
2018-08-31T17:44:11.499Z,17.65
2018-08-31T17:49:07.686Z,17.68
2018-08-31T17:54:03.543Z,17.56
2018-08-31T17:59:00.005Z,17.42
2018-08-31T18:03:56.502Z,17.48
2018-08-31T18:08:52.085Z,17.27
2018-08-31T18:13:47.762Z,17.20
2018-08-31T18:18:43.298Z,17.08
2018-08-31T18:23:39.145Z,17.19
2018-08-31T18:28:35.093Z,17.11
2018-08-31T18:33:30.962Z,17.20
2018-08-31T18:38:26.674Z,17.08
2018-08-31T18:43:23.229Z,17.09
2018-08-31T18:48:18.967Z,17.04
2018-08-31T18:53:14.458Z,17.01
2018-08-31T18:58:10.207Z,17.02
2018-08-31T19:03:06.097Z,16.90
2018-08-31T19:08:04.182Z,16.91
2018-08-31T19:13:00.237Z,16.93
2018-08-31T19:17:58.658Z,16.86
2018-08-31T19:22:54.627Z,16.79
2018-08-31T19:27:53.034Z,16.78
2018-08-31T19:32:52.308Z,16.79
2018-08-31T19:37:48.959Z,16.72
2018-08-31T19:42:46.065Z,16.79
2018-08-31T19:47:44.110Z,16.78
2018-08-31T19:52:39.555Z,16.83
2018-08-31T19:57:36.541Z,16.78
2018-08-31T20:02:33.487Z,16.76
2018-08-31T20:07:29.571Z,16.78
2018-08-31T20:12:25.476Z,16.75
2018-08-31T20:17:21.869Z,16.60
2018-08-31T20:22:17.756Z,16.68
2018-08-31T20:27:14.612Z,16.66
2018-08-31T20:32:10.642Z,16.64
2018-08-31T20:37:07.007Z,16.71
2018-08-31T20:42:02.572Z,16.61
2018-08-31T20:46:59.028Z,16.61
2018-08-31T20:51:55.101Z,16.61
2018-08-31T20:56:51.053Z,16.54
2018-08-31T21:01:46.766Z,16.42
2018-08-31T21:06:43.304Z,16.38
2018-08-31T21:11:40.289Z,16.41
2018-08-31T21:16:36.613Z,16.46
2018-08-31T21:21:32.029Z,16.33
2018-08-31T21:26:28.047Z,16.38
2018-08-31T21:31:25.230Z,16.20
2018-08-31T21:36:20.856Z,16.13
2018-08-31T21:41:16.615Z,16.17
2018-08-31T21:46:12.443Z,16.08
2018-08-31T21:51:08.001Z,16.08
2018-08-31T21:56:04.041Z,16.05
2018-08-31T22:00:59.621Z,15.98
2018-08-31T22:05:55.697Z,15.94
2018-08-31T22:10:51.621Z,15.94
2018-08-31T22:15:47.775Z,15.83
2018-08-31T22:20:43.684Z,15.90
2018-08-31T22:25:39.434Z,15.83
2018-08-31T22:30:35.307Z,15.75
2018-08-31T22:35:30.994Z,15.76
2018-08-31T22:40:26.904Z,15.72
2018-08-31T22:45:22.874Z,15.67
2018-08-31T22:50:18.637Z,15.61
2018-08-31T22:55:15.142Z,15.47
2018-08-31T23:00:10.578Z,15.52
2018-08-31T23:05:06.861Z,15.52
2018-08-31T23:10:02.732Z,15.43
2018-08-31T23:14:58.477Z,15.54
2018-08-31T23:19:54.353Z,15.47
2018-08-31T23:24:50.980Z,15.46
2018-08-31T23:29:46.604Z,15.44
2018-08-31T23:34:42.365Z,15.42
2018-08-31T23:39:37.896Z,15.29
2018-08-31T23:44:33.838Z,15.33
2018-08-31T23:49:29.662Z,15.31
2018-08-31T23:54:25.803Z,15.22
2018-08-31T23:59:21.431Z,15.11
